createdAt,value
2016-02-20T00:00:30.855Z,3.21
2016-02-20T00:01:30.811Z,3.28
2016-02-20T00:02:30.814Z,3.18
2016-02-20T00:03:30.800Z,3.21
2016-02-20T00:04:30.803Z,3.18
2016-02-20T00:05:30.794Z,3.18
2016-02-20T00:06:30.791Z,3.26
2016-02-20T00:07:30.778Z,3.21
2016-02-20T00:08:30.780Z,3.26
2016-02-20T00:09:30.783Z,3.23
2016-02-20T00:10:30.770Z,3.23
2016-02-20T00:11:30.805Z,3.2
2016-02-20T00:12:30.791Z,3.23
2016-02-20T00:13:30.778Z,3.28
2016-02-20T00:14:30.781Z,3.23
2016-02-20T00:15:30.752Z,3.26
2016-02-20T00:16:30.755Z,3.23
2016-02-20T00:17:30.727Z,3.29
2016-02-20T00:18:30.730Z,3.21
2016-02-20T00:19:30.748Z,3.2
2016-02-20T00:20:30.719Z,3.17
2016-02-20T00:21:30.738Z,3.15
2016-02-20T00:22:30.725Z,3.13
2016-02-20T00:23:30.712Z,3.24
2016-02-20T00:24:30.715Z,3.21
2016-02-20T00:25:30.701Z,3.21
2016-02-20T00:26:30.704Z,3.21
2016-02-20T00:27:30.706Z,3.2
2016-02-20T00:28:30.694Z,3.17
2016-02-20T00:29:30.712Z,3.15
2016-02-20T00:30:30.532Z,3.14
2016-02-20T00:31:30.520Z,3.17
2016-02-20T00:32:30.742Z,3.17
2016-02-20T00:33:30.681Z,3.17
2016-02-20T00:34:30.684Z,3.15
2016-02-20T00:35:30.656Z,3.15
2016-02-20T00:36:30.658Z,3.15
2016-02-20T00:37:30.675Z,3.14
2016-02-20T00:38:30.647Z,3.14
2016-02-20T00:39:30.650Z,3.15
2016-02-20T00:40:30.638Z,3.15
2016-02-20T00:41:30.640Z,3.1
2016-02-20T00:42:30.643Z,3.18
2016-02-20T00:43:30.630Z,3.18
2016-02-20T00:44:30.617Z,3.18
2016-02-20T00:45:30.619Z,3.21
2016-02-20T00:46:30.607Z,3.15
2016-02-20T00:47:30.609Z,3.17
2016-02-20T00:48:30.613Z,3.15
2016-02-20T00:49:30.599Z,3.18
2016-02-20T00:50:30.601Z,3.17
2016-02-20T00:51:30.588Z,3.13
2016-02-20T00:52:30.607Z,3.17
2016-02-20T00:53:30.437Z,3.15
2016-02-20T00:54:30.581Z,3.14
2016-02-20T00:55:30.585Z,3.11
2016-02-20T00:56:30.602Z,3.14
2016-02-20T00:57:30.559Z,3.2
2016-02-20T00:58:30.561Z,3.2
2016-02-20T00:59:30.564Z,3.2
2016-02-20T01:00:30.550Z,3.17
2016-02-20T01:01:30.537Z,3.21
2016-02-20T01:02:30.540Z,3.15
2016-02-20T01:03:30.574Z,3.08
2016-02-20T01:04:30.531Z,3.15
2016-02-20T01:05:30.548Z,3.06
2016-02-20T01:06:30.519Z,3.03
2016-02-20T01:07:30.523Z,3
2016-02-20T01:08:30.509Z,3.03
2016-02-20T01:09:30.511Z,2.92
2016-02-20T01:10:30.531Z,2.92
2016-02-20T01:11:30.502Z,2.93
2016-02-20T01:12:30.505Z,2.79
2016-02-20T01:13:30.492Z,2.82
2016-02-20T01:14:30.480Z,2.79
2016-02-20T01:15:30.497Z,2.81
2016-02-20T01:16:30.468Z,2.81
2016-02-20T01:17:30.471Z,2.71
2016-02-20T01:18:30.475Z,2.72
2016-02-20T01:19:30.461Z,2.63
2016-02-20T01:20:30.448Z,2.66
2016-02-20T01:21:30.456Z,2.64
2016-02-20T01:22:30.459Z,2.61
2016-02-20T01:23:30.446Z,2.57
2016-02-20T01:24:30.449Z,2.52
2016-02-20T01:25:30.451Z,2.54
2016-02-20T01:26:30.265Z,2.52
2016-02-20T01:27:30.425Z,2.45
2016-02-20T01:28:30.428Z,2.53
2016-02-20T01:29:30.462Z,2.38
2016-02-20T01:30:30.433Z,2.46
2016-02-20T01:31:30.404Z,2.39
2016-02-20T01:32:30.392Z,2.36
2016-02-20T01:33:30.394Z,2.34
2016-02-20T01:34:30.397Z,2.34
2016-02-20T01:35:30.383Z,2.23
2016-02-20T01:36:30.386Z,2.28
2016-02-20T01:37:30.374Z,2.24
2016-02-20T01:38:30.361Z,2.27
2016-02-20T01:39:30.364Z,2.17
2016-02-20T01:40:30.367Z,2.14
2016-02-20T01:41:30.353Z,2.21
2016-02-20T01:42:30.356Z,2.16
2016-02-20T01:43:30.358Z,2.09
2016-02-20T01:44:30.330Z,2.1
2016-02-20T01:45:30.348Z,2.14
2016-02-20T01:46:30.335Z,2.07
2016-02-20T01:47:30.322Z,2.07
2016-02-20T01:48:30.310Z,2
2016-02-20T01:49:30.312Z,1.98
2016-02-20T01:50:30.315Z,2.03
2016-02-20T01:51:30.287Z,1.99
2016-02-20T01:52:30.289Z,2
2016-02-20T01:53:30.135Z,2.03
2016-02-20T01:54:30.295Z,2
2016-02-20T01:55:30.266Z,2.05
2016-02-20T01:56:30.284Z,2.03
2016-02-20T01:57:30.271Z,2.02
2016-02-20T01:58:30.259Z,1.95
2016-02-20T01:59:30.245Z,1.99
2016-02-20T02:00:30.248Z,1.99
2016-02-20T02:01:30.234Z,2.14
2016-02-20T02:02:30.223Z,2.03
2016-02-20T02:03:30.225Z,2.06
2016-02-20T02:04:30.212Z,2.09
2016-02-20T02:05:30.212Z,2.1
2016-02-20T02:06:30.215Z,2.07
2016-02-20T02:07:30.202Z,2.07
2016-02-20T02:08:30.188Z,2.21
2016-02-20T02:09:30.175Z,2.09
2016-02-20T02:10:30.178Z,2.12
2016-02-20T02:11:30.181Z,2.18
2016-02-20T02:12:30.184Z,2.21
2016-02-20T02:13:30.186Z,2.24
2016-02-20T02:14:30.439Z,2.18
2016-02-20T02:15:30.145Z,2.3
2016-02-20T02:16:30.147Z,2.31
2016-02-20T02:17:30.135Z,2.2
2016-02-20T02:18:30.137Z,2.27
2016-02-20T02:19:30.124Z,2.28
2016-02-20T02:20:30.143Z,2.35
2016-02-20T02:21:30.130Z,2.41
2016-02-20T02:22:30.117Z,2.41
2016-02-20T02:23:30.104Z,2.39
2016-02-20T02:24:30.091Z,2.38
2016-02-20T02:25:30.093Z,2.41
2016-02-20T02:26:30.096Z,2.45
2016-02-20T02:27:30.084Z,2.45
2016-02-20T02:28:30.086Z,2.46
2016-02-20T02:29:30.089Z,2.39
2016-02-20T02:30:30.076Z,2.41
2016-02-20T02:31:30.062Z,2.53
2016-02-20T02:32:30.065Z,2.48
2016-02-20T02:33:30.053Z,2.49
2016-02-20T02:34:30.071Z,2.49
2016-02-20T02:35:30.058Z,2.57
2016-02-20T02:36:30.045Z,2.59
2016-02-20T02:37:30.032Z,2.63
2016-02-20T02:38:30.019Z,2.6
2016-02-20T02:39:29.553Z,2.56
2016-02-20T02:40:30.008Z,2.66
2016-02-20T02:41:30.011Z,2.63
2016-02-20T02:42:30.014Z,2.6
2016-02-20T02:43:30.002Z,2.59
2016-02-20T02:44:30.005Z,2.61
2016-02-20T02:45:29.991Z,2.67
2016-02-20T02:46:29.978Z,2.57
2016-02-20T02:47:29.980Z,2.63
2016-02-20T02:48:29.983Z,2.63
2016-02-20T02:49:29.971Z,2.61
2016-02-20T02:50:29.957Z,2.67
2016-02-20T02:51:29.960Z,2.71
2016-02-20T02:52:29.948Z,2.71
2016-02-20T02:53:29.950Z,2.71
2016-02-20T02:54:29.438Z,2.71
2016-02-20T02:55:29.940Z,2.66
2016-02-20T02:56:29.943Z,2.72
2016-02-20T02:57:30.087Z,2.77
2016-02-20T02:58:29.932Z,2.64
2016-02-20T02:59:29.763Z,2.6
2016-02-20T03:00:29.891Z,2.61
2016-02-20T03:01:29.894Z,2.57
2016-02-20T03:02:29.896Z,2.53
2016-02-20T03:03:29.727Z,2.56
2016-02-20T03:04:29.886Z,2.61
2016-02-20T03:05:29.889Z,2.56
2016-02-20T03:06:29.875Z,2.52
2016-02-20T03:07:29.879Z,2.45
2016-02-20T03:08:29.866Z,2.48
2016-02-20T03:09:29.853Z,2.43
2016-02-20T03:10:29.855Z,2.42
2016-02-20T03:11:29.842Z,2.45
2016-02-20T03:12:29.830Z,2.31
2016-02-20T03:13:29.847Z,2.23
2016-02-20T03:14:29.836Z,2.3
2016-02-20T03:15:29.821Z,2.28
2016-02-20T03:16:29.809Z,2.34
2016-02-20T03:17:29.811Z,2.23
2016-02-20T03:18:29.799Z,2.2
2016-02-20T03:19:29.801Z,2.16
2016-02-20T03:20:29.804Z,2.14
2016-02-20T03:21:29.791Z,2.1
2016-02-20T03:22:29.778Z,2.06
2016-02-20T03:23:29.781Z,2.06
2016-02-20T03:24:29.769Z,2.12
2016-02-20T03:25:29.755Z,2.1
2016-02-20T03:26:29.758Z,2.03
2016-02-20T03:27:29.761Z,2.14
2016-02-20T03:28:29.748Z,1.93
2016-02-20T03:29:29.781Z,1.99
2016-02-20T03:30:29.738Z,2.03
2016-02-20T03:31:29.723Z,1.98
2016-02-20T03:32:29.726Z,2.03
2016-02-20T03:33:29.714Z,1.91
2016-02-20T03:34:29.732Z,1.95
2016-02-20T03:35:29.704Z,2
2016-02-20T03:36:29.692Z,2
2016-02-20T03:37:30.100Z,1.93
2016-02-20T03:38:29.697Z,1.87
2016-02-20T03:39:29.699Z,1.88
2016-02-20T03:40:29.671Z,1.9
2016-02-20T03:41:29.673Z,1.87
2016-02-20T03:42:29.676Z,1.91
2016-02-20T03:43:29.663Z,1.84
2016-02-20T03:44:29.666Z,1.88
2016-02-20T03:45:29.653Z,1.81
2016-02-20T03:46:29.639Z,1.73
2016-02-20T03:47:29.846Z,1.8
2016-02-20T03:48:29.630Z,1.77
2016-02-20T03:49:29.633Z,1.8
2016-02-20T03:50:29.619Z,1.77
2016-02-20T03:51:29.606Z,1.8
2016-02-20T03:52:29.610Z,1.76
2016-02-20T03:53:29.596Z,1.81
2016-02-20T03:54:29.583Z,1.8
2016-02-20T03:55:29.571Z,1.63
2016-02-20T03:56:29.604Z,1.83
2016-02-20T03:57:29.576Z,1.76
2016-02-20T03:58:29.546Z,1.63
2016-02-20T03:59:29.549Z,1.68
2016-02-20T04:00:30.021Z,1.68
2016-02-20T04:01:29.540Z,1.62
2016-02-20T04:02:29.527Z,1.59
2016-02-20T04:03:29.545Z,1.65
2016-02-20T04:04:29.532Z,1.65
2016-02-20T04:05:29.534Z,1.59
2016-02-20T04:06:29.522Z,1.68
2016-02-20T04:07:29.525Z,1.52
2016-02-20T04:08:29.496Z,1.68
2016-02-20T04:09:29.515Z,1.58
2016-02-20T04:10:29.486Z,1.6
2016-02-20T04:11:29.489Z,1.5
2016-02-20T04:12:29.491Z,1.52
2016-02-20T04:13:29.462Z,1.5
2016-02-20T04:14:29.465Z,1.51
2016-02-20T04:15:29.452Z,1.5
2016-02-20T04:16:29.455Z,1.58
2016-02-20T04:17:29.458Z,1.48
2016-02-20T04:18:29.430Z,1.52
2016-02-20T04:19:29.432Z,1.48
2016-02-20T04:20:29.419Z,1.52
2016-02-20T04:21:29.438Z,1.45
2016-02-20T04:22:29.424Z,1.45
2016-02-20T04:23:29.427Z,1.5
2016-02-20T04:24:29.383Z,1.45
2016-02-20T04:25:29.385Z,1.47
2016-02-20T04:26:29.372Z,1.5
2016-02-20T04:27:29.374Z,1.48
2016-02-20T04:28:29.363Z,1.37
2016-02-20T04:29:29.365Z,1.42
2016-02-20T04:30:29.352Z,1.41
2016-02-20T04:31:29.354Z,1.41
2016-02-20T04:32:29.342Z,1.34
2016-02-20T04:33:29.345Z,1.4
2016-02-20T04:34:29.332Z,1.3
2016-02-20T04:35:29.334Z,1.36
2016-02-20T04:36:29.306Z,1.4
2016-02-20T04:37:29.308Z,1.34
2016-02-20T04:38:29.296Z,1.32
2016-02-20T04:39:29.298Z,1.29
2016-02-20T04:40:29.285Z,1.32
2016-02-20T04:41:29.288Z,1.36
2016-02-20T04:42:29.290Z,1.3
2016-02-20T04:43:29.278Z,1.29
2016-02-20T04:44:29.281Z,1.26
2016-02-20T04:45:29.268Z,1.23
2016-02-20T04:46:29.255Z,1.16
2016-02-20T04:47:29.241Z,1.15
2016-02-20T04:48:29.229Z,1.23
2016-02-20T04:49:29.231Z,1.23
2016-02-20T04:50:29.219Z,1.29
2016-02-20T04:51:29.206Z,1.26
2016-02-20T04:52:29.192Z,1.26
2016-02-20T04:53:29.227Z,1.14
2016-02-20T04:54:29.197Z,1.26
2016-02-20T04:55:29.185Z,1.15
2016-02-20T04:56:29.188Z,1.15
2016-02-20T04:57:29.175Z,1.16
2016-02-20T04:58:28.412Z,1.22
2016-02-20T04:59:29.180Z,1.15
2016-02-20T05:00:29.152Z,1.16
2016-02-20T05:01:29.155Z,1.22
2016-02-20T05:02:29.157Z,1.12
2016-02-20T05:03:29.144Z,1.09
2016-02-20T05:04:29.132Z,1.2
2016-02-20T05:05:29.118Z,1.22
2016-02-20T05:06:29.105Z,1.16
2016-02-20T05:07:29.107Z,1.23
2016-02-20T05:08:29.095Z,1.14
2016-02-20T05:09:29.097Z,1.11
2016-02-20T05:10:29.100Z,1.14
2016-02-20T05:11:28.932Z,1.2
2016-02-20T05:12:29.075Z,1.18
2016-02-20T05:13:29.077Z,1.14
2016-02-20T05:14:29.049Z,1.2
2016-02-20T05:15:29.067Z,1.2
2016-02-20T05:16:29.054Z,1.11
2016-02-20T05:17:29.056Z,1.22
2016-02-20T05:18:29.028Z,1.22
2016-02-20T05:19:29.031Z,1.05
2016-02-20T05:20:29.017Z,1.06
2016-02-20T05:21:29.021Z,1.15
2016-02-20T05:22:29.008Z,1.18
2016-02-20T05:23:29.010Z,1.11
2016-02-20T05:24:28.983Z,1.09
2016-02-20T05:25:28.985Z,1.11
2016-02-20T05:26:28.972Z,1.11
2016-02-20T05:27:28.990Z,1.08
2016-02-20T05:28:28.961Z,1.11
2016-02-20T05:29:28.949Z,1.14
2016-02-20T05:30:28.951Z,1.08
2016-02-20T05:31:28.954Z,1.11
2016-02-20T05:32:28.941Z,1.02
2016-02-20T05:33:28.943Z,1.08
2016-02-20T05:34:28.915Z,1.12
2016-02-20T05:35:28.933Z,1.06
2016-02-20T05:36:28.904Z,1.06
2016-02-20T05:37:28.907Z,1
2016-02-20T05:38:28.895Z,1.05
2016-02-20T05:39:28.913Z,0.97
2016-02-20T05:40:28.884Z,0.94
2016-02-20T05:41:28.903Z,1.04
2016-02-20T05:42:28.874Z,1.02
2016-02-20T05:43:28.861Z,0.98
2016-02-20T05:44:28.864Z,0.96
2016-02-20T05:45:28.882Z,0.96
2016-02-20T05:46:28.837Z,0.91
2016-02-20T05:47:28.840Z,0.9
2016-02-20T05:48:28.827Z,0.9
2016-02-20T05:49:28.846Z,0.9
2016-02-20T05:50:28.817Z,0.96
2016-02-20T05:51:28.805Z,0.98
2016-02-20T05:52:28.808Z,0.97
2016-02-20T05:53:28.810Z,0.96
2016-02-20T05:54:28.797Z,0.91
2016-02-20T05:55:28.784Z,0.87
2016-02-20T05:56:28.787Z,0.84
2016-02-20T05:57:28.774Z,0.91
2016-02-20T05:58:28.744Z,0.9
2016-02-20T05:59:28.763Z,0.91
2016-02-20T06:00:28.594Z,0.9
2016-02-20T06:01:28.752Z,0.87
2016-02-20T06:02:28.725Z,0.86
2016-02-20T06:03:28.727Z,0.8
2016-02-20T06:04:28.715Z,0.83
2016-02-20T06:05:28.982Z,0.84
2016-02-20T06:06:28.704Z,0.87
2016-02-20T06:07:28.707Z,0.87
2016-02-20T06:08:28.693Z,0.79
2016-02-20T06:09:28.681Z,0.78
2016-02-20T06:10:28.684Z,0.75
2016-02-20T06:11:28.654Z,0.86
2016-02-20T06:12:28.658Z,0.87
2016-02-20T06:13:28.645Z,0.86
2016-02-20T06:14:29.070Z,0.88
2016-02-20T06:15:28.650Z,0.84
2016-02-20T06:16:27.950Z,0.8
2016-02-20T06:17:28.640Z,0.83
2016-02-20T06:18:28.611Z,0.83
2016-02-20T06:19:28.630Z,0.91
2016-02-20T06:20:28.617Z,0.97
2016-02-20T06:21:28.603Z,0.88
2016-02-20T06:22:28.606Z,0.96
2016-02-20T06:23:28.781Z,0.96
2016-02-20T06:24:28.581Z,0.96
2016-02-20T06:25:28.599Z,0.91
2016-02-20T06:26:28.555Z,0.94
2016-02-20T06:27:28.558Z,0.91
2016-02-20T06:28:28.560Z,0.94
2016-02-20T06:29:28.547Z,0.97
2016-02-20T06:30:28.550Z,0.96
2016-02-20T06:31:28.366Z,0.97
2016-02-20T06:32:28.508Z,1.08
2016-02-20T06:33:28.527Z,1.05
2016-02-20T06:34:28.498Z,0.94
2016-02-20T06:35:28.501Z,1.06
2016-02-20T06:36:28.503Z,1.11
2016-02-20T06:37:28.522Z,1.09
2016-02-20T06:38:28.477Z,1.08
2016-02-20T06:39:28.496Z,1.08
2016-02-20T06:40:28.467Z,1.09
2016-02-20T06:41:28.454Z,1.12
2016-02-20T06:42:28.457Z,1.12
2016-02-20T06:43:28.445Z,1.05
2016-02-20T06:44:28.448Z,1.15
2016-02-20T06:45:28.434Z,1.15
2016-02-20T06:46:28.436Z,1.26
2016-02-20T06:47:28.423Z,1.22
2016-02-20T06:48:28.411Z,1.2
2016-02-20T06:49:28.414Z,1.24
2016-02-20T06:50:28.400Z,1.26
2016-02-20T06:51:28.403Z,1.33
2016-02-20T06:52:28.390Z,1.32
2016-02-20T06:53:28.408Z,1.29
2016-02-20T06:54:28.381Z,1.36
2016-02-20T06:55:28.398Z,1.33
2016-02-20T06:56:28.401Z,1.45
2016-02-20T06:57:28.357Z,1.48
2016-02-20T06:58:28.344Z,1.52
2016-02-20T06:59:28.347Z,1.59
2016-02-20T07:00:28.349Z,1.55
2016-02-20T07:01:28.336Z,1.59
2016-02-20T07:02:28.339Z,1.62
2016-02-20T07:03:28.310Z,1.55
2016-02-20T07:04:28.313Z,1.63
2016-02-20T07:05:28.300Z,1.66
2016-02-20T07:06:28.302Z,1.7
2016-02-20T07:07:28.290Z,1.76
2016-02-20T07:08:28.307Z,1.76
2016-02-20T07:09:28.296Z,1.77
2016-02-20T07:10:28.282Z,1.79
2016-02-20T07:11:28.269Z,1.84
2016-02-20T07:12:28.257Z,1.86
2016-02-20T07:13:28.259Z,1.86
2016-02-20T07:14:27.574Z,1.9
2016-02-20T07:15:28.265Z,1.91
2016-02-20T07:16:28.267Z,1.99
2016-02-20T07:17:28.239Z,1.98
2016-02-20T07:18:28.225Z,2.02
2016-02-20T07:19:28.229Z,1.93
2016-02-20T07:20:28.215Z,2.07
2016-02-20T07:21:28.217Z,2.14
2016-02-20T07:22:27.549Z,2.14
2016-02-20T07:23:28.208Z,2.17
2016-02-20T07:24:28.211Z,2.16
2016-02-20T07:25:28.198Z,2.25
2016-02-20T07:26:28.185Z,2.35
2016-02-20T07:27:28.172Z,2.35
2016-02-20T07:28:28.174Z,2.39
2016-02-20T07:29:28.162Z,2.38
2016-02-20T07:30:28.180Z,2.43
2016-02-20T07:31:28.166Z,2.52
2016-02-20T07:32:28.154Z,2.59
2016-02-20T07:33:28.141Z,2.59
2016-02-20T07:34:28.144Z,2.64
2016-02-20T07:35:28.146Z,2.6
2016-02-20T07:36:28.134Z,2.64
2016-02-20T07:37:28.121Z,2.71
2016-02-20T07:38:28.123Z,2.64
2016-02-20T07:39:28.126Z,2.77
2016-02-20T07:40:28.160Z,2.77
2016-02-20T07:41:28.115Z,2.81
2016-02-20T07:42:28.103Z,2.79
2016-02-20T07:43:28.106Z,2.81
2016-02-20T07:44:28.093Z,2.9
2016-02-20T07:45:28.079Z,2.93
2016-02-20T07:46:28.192Z,2.92
2016-02-20T07:47:28.788Z,2.99
2016-02-20T07:48:28.087Z,2.99
2016-02-20T07:49:28.075Z,2.99
2016-02-20T07:50:28.093Z,3.02
2016-02-20T07:51:28.158Z,3.14
2016-02-20T07:52:28.067Z,3.17
2016-02-20T07:53:28.069Z,3.18
2016-02-20T07:54:28.057Z,3.2
2016-02-20T07:55:28.106Z,3.23
2016-02-20T07:56:28.062Z,3.29
2016-02-20T07:57:28.034Z,3.32
2016-02-20T07:58:28.021Z,3.33
2016-02-20T07:59:28.024Z,3.43
2016-02-20T08:00:28.010Z,3.48
2016-02-20T08:01:28.013Z,3.47
2016-02-20T08:02:28.016Z,3.51
2016-02-20T08:03:28.002Z,3.57
2016-02-20T08:04:28.006Z,3.55
2016-02-20T08:05:27.993Z,3.57
2016-02-20T08:06:27.996Z,3.66
2016-02-20T08:07:27.983Z,3.54
2016-02-20T08:08:28.360Z,3.66
2016-02-20T08:09:28.003Z,3.7
2016-02-20T08:10:27.991Z,3.65
2016-02-20T08:11:28.040Z,3.69
2016-02-20T08:12:27.980Z,3.7
2016-02-20T08:13:27.967Z,3.72
2016-02-20T08:14:28.032Z,3.76
2016-02-20T08:15:27.957Z,3.83
2016-02-20T08:16:28.006Z,3.9
2016-02-20T08:17:27.948Z,3.87
2016-02-20T08:18:27.965Z,3.9
2016-02-20T08:19:28.467Z,3.97
2016-02-20T08:20:27.955Z,3.96
2016-02-20T08:21:27.942Z,4.04
2016-02-20T08:22:28.023Z,4.08
2016-02-20T08:23:28.025Z,4
2016-02-20T08:24:27.919Z,4.09
2016-02-20T08:25:28.047Z,4.16
2016-02-20T08:26:27.924Z,4.22
2016-02-20T08:27:27.912Z,4.12
2016-02-20T08:28:27.930Z,4.23
2016-02-20T08:29:27.932Z,4.26
2016-02-20T08:30:27.903Z,4.29
2016-02-20T08:31:27.922Z,4.3
2016-02-20T08:32:27.909Z,4.32
2016-02-20T08:33:27.911Z,4.34
2016-02-20T08:34:27.899Z,4.47
2016-02-20T08:35:27.902Z,4.51
2016-02-20T08:36:27.888Z,4.47
2016-02-20T08:37:27.986Z,4.48
2016-02-20T08:38:27.877Z,4.47
2016-02-20T08:39:27.869Z,4.58
2016-02-20T08:40:27.861Z,4.5
2016-02-20T08:41:27.852Z,4.54
2016-02-20T08:42:27.827Z,4.6
2016-02-20T08:43:27.820Z,4.66
2016-02-20T08:44:42.568Z,4.7
2016-02-20T08:45:27.801Z,4.72
2016-02-20T08:46:27.799Z,4.8
2016-02-20T08:47:27.782Z,4.75
2016-02-20T08:48:27.781Z,4.75
2016-02-20T08:49:27.783Z,4.85
2016-02-20T08:50:27.784Z,4.86
2016-02-20T08:51:27.769Z,4.78
2016-02-20T08:52:27.754Z,4.88
2016-02-20T08:53:27.756Z,4.97
2016-02-20T08:54:27.758Z,4.94
2016-02-20T08:55:27.760Z,5.02
2016-02-20T08:56:27.795Z,4.92
2016-02-20T08:57:27.750Z,4.94
2016-02-20T08:58:27.752Z,5.06
2016-02-20T08:59:27.802Z,5.02
2016-02-20T09:00:27.741Z,4.97
2016-02-20T09:01:27.743Z,4.92
2016-02-20T09:02:27.731Z,4.94
2016-02-20T09:03:27.748Z,5
2016-02-20T09:04:27.736Z,4.99
2016-02-20T09:05:27.738Z,5.1
2016-02-20T09:06:27.725Z,5.04
2016-02-20T09:07:27.728Z,5.15
2016-02-20T09:08:27.715Z,5.24
2016-02-20T09:09:27.733Z,5.3
2016-02-20T09:10:27.720Z,5.4
2016-02-20T09:11:27.723Z,5.39
2016-02-20T09:12:27.725Z,5.45
2016-02-20T09:13:27.712Z,5.51
2016-02-20T09:14:27.763Z,5.54
2016-02-20T09:15:27.749Z,5.61
2016-02-20T09:16:27.705Z,5.57
2016-02-20T09:17:27.691Z,5.57
2016-02-20T09:18:28.210Z,5.61
2016-02-20T09:19:28.260Z,5.67
2016-02-20T09:20:27.715Z,5.74
2016-02-20T09:21:27.702Z,5.79
2016-02-20T09:22:27.690Z,5.83
2016-02-20T09:23:27.692Z,5.83
2016-02-20T09:24:27.696Z,5.81
2016-02-20T09:25:27.698Z,5.9
2016-02-20T09:26:27.700Z,5.96
2016-02-20T09:27:27.688Z,6.12
2016-02-20T09:28:27.675Z,6.12
2016-02-20T09:29:27.740Z,6.12
2016-02-20T09:30:27.681Z,6.25
2016-02-20T09:31:27.683Z,6.19
2016-02-20T09:32:28.279Z,6.21
2016-02-20T09:33:27.688Z,6.3
2016-02-20T09:34:27.706Z,6.31
2016-02-20T09:35:27.678Z,6.37
2016-02-20T09:36:27.681Z,6.38
2016-02-20T09:37:27.667Z,6.44
2016-02-20T09:38:27.670Z,6.48
2016-02-20T09:39:27.673Z,6.55
2016-02-20T09:40:27.675Z,6.56
2016-02-20T09:41:27.678Z,6.64
2016-02-20T09:42:27.681Z,6.69
2016-02-20T09:43:27.668Z,6.71
2016-02-20T09:44:27.671Z,6.79
2016-02-20T09:45:27.674Z,6.84
2016-02-20T09:46:27.660Z,6.81
2016-02-20T09:47:27.679Z,6.92
2016-02-20T09:48:27.682Z,6.94
2016-02-20T09:49:27.668Z,6.91
2016-02-20T09:50:27.655Z,6.97
2016-02-20T09:51:27.674Z,7.07
2016-02-20T09:52:27.661Z,7.05
2016-02-20T09:53:27.663Z,7.05
2016-02-20T09:54:27.682Z,7.07
2016-02-20T09:55:27.669Z,7.13
2016-02-20T09:56:27.671Z,7.12
2016-02-20T09:57:27.659Z,7.1
2016-02-20T09:58:27.677Z,7.13
2016-02-20T09:59:27.695Z,7.28
2016-02-20T10:00:27.668Z,7.12
2016-02-20T10:01:27.654Z,7.23
2016-02-20T10:02:27.673Z,7.16
2016-02-20T10:03:27.676Z,7.24
2016-02-20T10:04:27.662Z,7.21
2016-02-20T10:05:27.743Z,7.24
2016-02-20T10:06:27.683Z,7.35
2016-02-20T10:07:27.670Z,7.34
2016-02-20T10:08:27.641Z,7.23
2016-02-20T10:09:27.661Z,7.31
2016-02-20T10:10:27.663Z,7.34
2016-02-20T10:11:27.666Z,7.34
2016-02-20T10:12:27.653Z,7.34
2016-02-20T10:13:27.655Z,7.39
2016-02-20T10:14:27.658Z,7.35
2016-02-20T10:15:27.676Z,7.32
2016-02-20T10:16:27.663Z,7.4
2016-02-20T10:17:27.666Z,7.31
2016-02-20T10:18:27.685Z,7.35
2016-02-20T10:19:27.656Z,7.39
2016-02-20T10:20:27.690Z,7.32
2016-02-20T10:21:27.676Z,7.34
2016-02-20T10:22:27.664Z,7.4
2016-02-20T10:23:27.666Z,7.3
2016-02-20T10:24:27.684Z,7.31
2016-02-20T10:25:27.531Z,7.42
2016-02-20T10:26:27.659Z,7.32
2016-02-20T10:27:28.271Z,7.4
2016-02-20T10:28:27.665Z,7.37
2016-02-20T10:29:27.714Z,7.42
2016-02-20T10:30:27.670Z,7.42
2016-02-20T10:31:27.688Z,7.34
2016-02-20T10:32:27.034Z,7.42
2016-02-20T10:33:27.678Z,7.49
2016-02-20T10:34:27.961Z,7.3
2016-02-20T10:35:27.714Z,7.42
2016-02-20T10:36:27.670Z,7.32
2016-02-20T10:37:27.704Z,7.32
2016-02-20T10:38:27.722Z,7.42
2016-02-20T10:39:27.694Z,7.4
2016-02-20T10:40:27.681Z,7.42
2016-02-20T10:41:27.668Z,7.43
2016-02-20T10:42:27.686Z,7.4
2016-02-20T10:43:27.658Z,7.39
2016-02-20T10:44:27.676Z,7.34
2016-02-20T10:45:27.678Z,7.35
2016-02-20T10:46:27.728Z,7.34
2016-02-20T10:47:27.669Z,7.35
2016-02-20T10:48:27.702Z,7.39
2016-02-20T10:49:27.674Z,7.32
2016-02-20T10:50:27.677Z,7.24
2016-02-20T10:51:27.694Z,7.31
2016-02-20T10:52:27.729Z,7.24
2016-02-20T10:53:27.715Z,7.27
2016-02-20T10:54:27.671Z,7.23
2016-02-20T10:55:27.690Z,7.15
2016-02-20T10:56:27.755Z,7.2
2016-02-20T10:57:27.677Z,7.13
2016-02-20T10:58:27.696Z,7.13
2016-02-20T10:59:27.682Z,7.07
2016-02-20T11:00:27.669Z,7.06
2016-02-20T11:01:27.687Z,6.99
2016-02-20T11:02:27.690Z,6.99
2016-02-20T11:03:27.678Z,6.95
2016-02-20T11:04:27.696Z,6.97
2016-02-20T11:05:27.684Z,6.94
2016-02-20T11:06:27.670Z,6.92
2016-02-20T11:07:27.689Z,6.92
2016-02-20T11:08:27.675Z,6.92
2016-02-20T11:09:27.694Z,6.89
2016-02-20T11:10:27.697Z,6.91
2016-02-20T11:11:27.683Z,6.87
2016-02-20T11:12:27.531Z,6.91
2016-02-20T11:13:27.673Z,6.79
2016-02-20T11:14:27.661Z,6.8
2016-02-20T11:15:27.711Z,6.81
2016-02-20T11:16:27.728Z,6.79
2016-02-20T11:17:27.716Z,6.76
2016-02-20T11:18:27.703Z,6.79
2016-02-20T11:19:27.689Z,6.8
2016-02-20T11:20:27.692Z,6.79
2016-02-20T11:21:27.680Z,6.8
2016-02-20T11:22:27.697Z,6.88
2016-02-20T11:23:27.669Z,6.87
2016-02-20T11:24:27.672Z,6.74
2016-02-20T11:25:27.674Z,6.84
2016-02-20T11:26:27.677Z,6.79
2016-02-20T11:27:27.680Z,6.89
2016-02-20T11:28:27.698Z,6.81
2016-02-20T11:29:27.701Z,6.91
2016-02-20T11:30:27.704Z,6.88
2016-02-20T11:31:27.050Z,6.87
2016-02-20T11:32:27.552Z,6.88
2016-02-20T11:33:27.680Z,6.94
2016-02-20T11:34:27.699Z,6.92
2016-02-20T11:35:27.717Z,6.91
2016-02-20T11:36:27.672Z,6.98
2016-02-20T11:37:27.675Z,6.99
2016-02-20T11:38:27.678Z,6.98
2016-02-20T11:39:26.900Z,6.94
2016-02-20T11:40:27.856Z,6.95
2016-02-20T11:41:27.671Z,7.03
2016-02-20T11:42:27.689Z,7.02
2016-02-20T11:43:27.661Z,6.81
2016-02-20T11:44:27.664Z,6.97
2016-02-20T11:45:27.666Z,6.99
2016-02-20T11:46:27.902Z,6.99
2016-02-20T11:47:27.811Z,7.02
2016-02-20T11:48:27.502Z,7.05
2016-02-20T11:49:27.677Z,6.95
2016-02-20T11:50:27.680Z,6.99
2016-02-20T11:51:27.650Z,7.06
2016-02-20T11:52:27.685Z,7.02
2016-02-20T11:53:27.719Z,7.03
2016-02-20T11:54:27.690Z,6.97
2016-02-20T11:55:27.739Z,7.05
2016-02-20T11:56:27.929Z,7.05
2016-02-20T11:57:27.791Z,7.06
2016-02-20T11:58:27.997Z,7.06
2016-02-20T11:59:27.656Z,7.03
2016-02-20T12:00:27.877Z,7.05
2016-02-20T12:01:28.162Z,7.09
2016-02-20T12:02:27.774Z,7.05
2016-02-20T12:03:29.323Z,6.99
2016-02-20T12:04:29.779Z,7.07
2016-02-20T12:05:27.938Z,7.07
2016-02-20T12:06:27.754Z,6.91
2016-02-20T12:07:28.351Z,7.05
2016-02-20T12:08:28.009Z,6.92
2016-02-20T12:09:27.902Z,6.91
2016-02-20T12:10:27.937Z,6.94
2016-02-20T12:11:28.142Z,6.89
2016-02-20T12:12:27.691Z,6.89
2016-02-20T12:13:27.772Z,6.87
2016-02-20T12:14:27.712Z,6.94
2016-02-20T12:15:27.731Z,6.92
2016-02-20T12:16:27.858Z,6.87
2016-02-20T12:17:28.346Z,6.81
2016-02-20T12:18:27.941Z,6.98
2016-02-20T12:19:27.695Z,6.81
2016-02-20T12:20:27.900Z,6.91
2016-02-20T12:21:27.871Z,6.76
2016-02-20T12:22:27.936Z,6.87
2016-02-20T12:23:27.674Z,6.8
2016-02-20T12:24:27.677Z,6.77
2016-02-20T12:25:27.711Z,6.85
2016-02-20T12:26:27.636Z,6.76
2016-02-20T12:27:27.669Z,6.7
2016-02-20T12:28:27.672Z,6.7
2016-02-20T12:29:27.659Z,6.62
2016-02-20T12:30:27.646Z,6.66
2016-02-20T12:31:27.664Z,6.62
2016-02-20T12:32:27.667Z,6.59
2016-02-20T12:33:27.685Z,6.54
2016-02-20T12:34:27.673Z,6.46
2016-02-20T12:35:27.660Z,6.56
2016-02-20T12:36:27.647Z,6.54
2016-02-20T12:37:27.665Z,6.46
2016-02-20T12:38:27.652Z,6.54
2016-02-20T12:39:27.671Z,6.4
2016-02-20T12:40:27.970Z,6.37
2016-02-20T12:41:27.660Z,6.38
2016-02-20T12:42:27.678Z,6.33
2016-02-20T12:43:27.681Z,6.41
2016-02-20T12:45:27.656Z,6.31
2016-02-20T12:46:27.626Z,6.36
2016-02-20T12:47:27.645Z,6.3
2016-02-20T12:48:27.663Z,6.27
2016-02-20T12:49:27.634Z,6.21
2016-02-20T12:50:27.653Z,6.3
2016-02-20T12:51:27.640Z,6.17
2016-02-20T12:52:27.658Z,6.18
2016-02-20T12:53:27.645Z,6.17
2016-02-20T12:54:27.648Z,6.25
2016-02-20T12:55:27.650Z,6.19
2016-02-20T12:56:27.685Z,6.21
2016-02-20T12:57:27.656Z,6.18
2016-02-20T12:58:27.628Z,6.18
2016-02-20T12:59:27.646Z,6.14
2016-02-20T13:00:27.663Z,6.15
2016-02-20T13:01:27.621Z,6.12
2016-02-20T13:02:27.623Z,6.18
2016-02-20T13:03:27.626Z,6.08
2016-02-20T13:04:27.629Z,6.18
2016-02-20T13:05:27.631Z,6.11
2016-02-20T13:06:27.634Z,6.04
2016-02-20T13:07:27.621Z,6.11
2016-02-20T13:08:27.607Z,6.08
2016-02-20T13:09:27.610Z,6.12
2016-02-20T13:10:27.598Z,6.03
2016-02-20T13:11:27.615Z,5.93
2016-02-20T13:12:27.618Z,6
2016-02-20T13:13:27.605Z,6
2016-02-20T13:14:27.608Z,5.97
2016-02-20T13:15:27.626Z,5.99
2016-02-20T13:16:27.614Z,5.96
2016-02-20T13:17:27.601Z,5.94
2016-02-20T13:18:27.603Z,5.91
2016-02-20T13:19:27.590Z,5.86
2016-02-20T13:20:27.593Z,5.86
2016-02-20T13:21:27.596Z,5.83
2016-02-20T13:22:27.614Z,5.83
2016-02-20T13:23:27.585Z,5.78